createdAt,value
2022-12-23T00:01:14.145Z,96902.47
2022-12-23T00:03:41.310Z,96904.47
2022-12-23T00:06:10.465Z,96833.09
2022-12-23T00:08:37.460Z,96898.00
2022-12-23T00:11:06.939Z,96892.88
2022-12-23T00:13:51.825Z,96899.84
2022-12-23T00:16:18.451Z,96867.44
2022-12-23T00:18:45.059Z,96912.53
2022-12-23T00:21:14.617Z,96883.00
2022-12-23T00:23:44.034Z,96895.22
2022-12-23T00:26:16.386Z,96867.22
2022-12-23T00:28:43.354Z,96843.34
2022-12-23T00:31:11.205Z,96900.00
2022-12-23T00:33:40.596Z,96882.09
2022-12-23T00:36:18.038Z,96879.84
2022-12-23T00:39:04.249Z,96878.22
2022-12-23T00:41:49.845Z,96878.44
2022-12-23T00:44:16.468Z,96869.53
2022-12-23T00:46:43.050Z,96884.63
2022-12-23T00:49:32.052Z,96851.69
2022-12-23T00:51:59.276Z,96803.47
2022-12-23T00:54:26.051Z,96865.47
2022-12-23T00:56:52.948Z,96864.34
2022-12-23T00:59:19.653Z,96870.72
2022-12-23T01:02:05.642Z,96869.47
2022-12-23T01:04:51.098Z,96864.03
2022-12-23T01:07:17.792Z,96782.00
2022-12-23T01:09:44.440Z,96853.22
2022-12-23T01:12:11.005Z,96834.69
2022-12-23T01:14:37.720Z,96862.59
2022-12-23T01:17:06.671Z,96867.06
2022-12-23T01:19:33.809Z,96857.78
2022-12-23T01:22:00.443Z,96798.53
2022-12-23T01:24:31.899Z,96852.22
2022-12-23T01:26:58.774Z,96862.59
2022-12-23T01:29:25.873Z,96778.91
2022-12-23T01:31:52.498Z,96852.31
2022-12-23T01:34:19.462Z,96850.97
2022-12-23T01:36:46.052Z,96813.75
2022-12-23T01:39:12.708Z,96845.06
2022-12-23T01:41:58.000Z,96845.66
2022-12-23T01:44:57.702Z,96837.03
2022-12-23T01:47:33.530Z,96842.31
2022-12-23T01:50:06.466Z,96844.53
2022-12-23T01:52:37.835Z,96845.50
2022-12-23T01:55:05.021Z,96782.75
2022-12-23T01:57:31.724Z,96844.53
2022-12-23T02:00:36.649Z,96840.69
2022-12-23T02:03:21.779Z,96839.50
2022-12-23T02:05:48.755Z,96833.44
2022-12-23T02:08:35.750Z,96832.88
2022-12-23T02:11:12.593Z,96764.50
2022-12-23T02:14:16.536Z,96836.22
2022-12-23T02:16:55.132Z,96808.34
2022-12-23T02:19:45.983Z,96827.66
2022-12-23T02:22:32.287Z,96753.00
2022-12-23T02:24:58.882Z,96828.72
2022-12-23T02:27:27.526Z,96770.88
2022-12-23T02:30:28.415Z,96817.66
2022-12-23T02:33:03.163Z,96824.25
2022-12-23T02:36:04.954Z,96818.06
2022-12-23T02:39:14.407Z,96814.00
2022-12-23T02:41:59.045Z,96819.03
2022-12-23T02:45:01.192Z,96814.59
2022-12-23T02:47:39.680Z,96796.03
2022-12-23T02:50:11.870Z,96799.50
2022-12-23T02:52:41.301Z,96725.69
2022-12-23T02:55:16.352Z,96754.44
2022-12-23T02:57:46.988Z,96825.38
2022-12-23T03:00:15.212Z,96810.13
2022-12-23T03:02:43.539Z,96765.69
2022-12-23T03:05:32.566Z,96795.44
2022-12-23T03:08:03.281Z,96788.72
2022-12-23T03:11:04.392Z,96801.09
2022-12-23T03:14:08.375Z,96791.56
2022-12-23T03:17:13.246Z,96780.03
2022-12-23T03:19:51.505Z,96785.88
2022-12-23T03:22:26.261Z,96780.88
2022-12-23T03:25:00.225Z,96778.97
2022-12-23T03:27:41.111Z,96789.88
2022-12-23T03:30:29.331Z,96788.97
2022-12-23T03:33:01.959Z,96789.34
2022-12-23T03:35:36.963Z,96800.34
2022-12-23T03:38:04.742Z,96786.50
2022-12-23T03:40:41.649Z,96746.78
2022-12-23T03:43:18.636Z,96769.66
2022-12-23T03:45:51.388Z,96798.19
2022-12-23T03:48:38.579Z,96650.31
2022-12-23T03:51:13.711Z,96798.50
2022-12-23T03:53:47.276Z,96794.22
2022-12-23T03:56:19.102Z,96804.63
2022-12-23T03:58:58.127Z,96730.09
2022-12-23T04:01:50.513Z,96798.88
2022-12-23T04:04:29.352Z,96779.69
2022-12-23T04:07:00.929Z,96715.66
2022-12-23T04:09:29.140Z,96800.47
2022-12-23T04:11:58.292Z,96802.69
2022-12-23T04:14:24.861Z,96799.03
2022-12-23T04:16:55.533Z,96787.28
2022-12-23T04:19:22.404Z,96789.06
2022-12-23T04:21:48.968Z,96783.63
2022-12-23T04:24:15.668Z,96783.50
2022-12-23T04:26:42.214Z,96778.16
2022-12-23T04:29:08.775Z,96748.63
2022-12-23T04:31:35.395Z,96780.41
2022-12-23T04:34:02.075Z,96677.88
2022-12-23T04:36:28.610Z,96748.75
2022-12-23T04:38:55.228Z,96719.81
2022-12-23T04:41:21.883Z,96775.94
2022-12-23T04:43:52.994Z,96772.59
2022-12-23T04:46:20.739Z,96784.00
2022-12-23T04:48:47.443Z,96780.75
2022-12-23T04:51:14.167Z,96788.69
2022-12-23T04:53:40.768Z,96721.38
2022-12-23T04:56:07.445Z,96773.09
2022-12-23T04:58:34.099Z,96774.25
2022-12-23T05:01:05.734Z,96856.28
2022-12-23T05:03:33.122Z,96776.56
2022-12-23T05:05:59.832Z,96725.47
2022-12-23T05:08:26.454Z,96792.16
2022-12-23T05:10:53.059Z,96798.75
2022-12-23T05:13:19.655Z,96761.72
2022-12-23T05:15:48.990Z,96802.31
2022-12-23T05:18:16.185Z,96805.16
2022-12-23T05:20:43.021Z,96782.09
2022-12-23T05:23:10.091Z,96760.59
2022-12-23T05:25:37.898Z,96764.41
2022-12-23T05:28:06.089Z,96775.31
2022-12-23T05:30:32.660Z,96773.28
2022-12-23T05:32:59.260Z,96654.50
2022-12-23T05:35:27.143Z,96800.25
2022-12-23T05:37:54.247Z,96804.91
2022-12-23T05:40:25.069Z,96734.59
2022-12-23T05:42:56.130Z,96811.69
2022-12-23T05:45:23.058Z,96805.88
2022-12-23T05:47:49.604Z,96811.81
2022-12-23T05:50:16.256Z,96794.78
2022-12-23T05:52:42.874Z,96818.44
2022-12-23T05:55:09.641Z,96805.81
2022-12-23T05:57:36.260Z,96815.88
2022-12-23T06:00:04.156Z,96817.31
2022-12-23T06:02:31.085Z,96760.47
2022-12-23T06:04:57.881Z,96814.81
2022-12-23T06:07:24.426Z,96810.81
2022-12-23T06:09:50.961Z,96798.66
2022-12-23T06:12:17.573Z,96819.56
2022-12-23T06:14:44.210Z,96767.38
2022-12-23T06:17:10.772Z,96801.25
2022-12-23T06:19:37.403Z,96815.44
2022-12-23T06:22:03.994Z,96710.00
2022-12-23T06:24:30.639Z,96811.78
2022-12-23T06:26:57.671Z,96732.50
2022-12-23T06:29:25.052Z,96811.78
2022-12-23T06:31:51.811Z,96780.38
2022-12-23T06:34:18.543Z,96700.38
2022-12-23T06:36:45.129Z,96822.94
2022-12-23T06:39:11.885Z,96804.81
2022-12-23T06:41:38.515Z,96741.78
2022-12-23T06:44:05.394Z,96835.81
2022-12-23T06:46:32.210Z,96825.72
2022-12-23T06:48:58.838Z,96823.94
2022-12-23T06:51:25.409Z,96823.50
2022-12-23T06:53:51.989Z,96753.75
2022-12-23T06:56:18.871Z,96811.63
2022-12-23T06:58:45.557Z,96804.09
2022-12-23T07:01:12.310Z,96825.28
2022-12-23T07:03:39.034Z,96832.06
2022-12-23T07:06:05.948Z,96831.44
2022-12-23T07:08:32.549Z,96823.78
2022-12-23T07:11:03.560Z,96830.91
2022-12-23T07:13:30.883Z,96822.59
2022-12-23T07:15:58.023Z,96818.78
2022-12-23T07:18:25.694Z,96831.50
2022-12-23T07:20:52.709Z,96830.03
2022-12-23T07:23:19.349Z,96734.13
2022-12-23T07:25:45.917Z,96811.72
2022-12-23T07:28:12.492Z,96793.22
2022-12-23T07:30:39.115Z,96820.69
2022-12-23T07:33:05.701Z,96825.72
2022-12-23T07:35:32.297Z,96810.59
2022-12-23T07:37:58.862Z,96809.78
2022-12-23T07:40:26.404Z,96826.28
2022-12-23T07:42:58.505Z,96825.94
2022-12-23T07:45:26.283Z,96747.56
2022-12-23T07:47:56.412Z,96765.28
2022-12-23T07:50:23.829Z,96817.56
2022-12-23T07:52:51.209Z,96820.28
2022-12-23T07:55:17.898Z,96827.63
2022-12-23T07:57:48.445Z,96830.19
2022-12-23T08:00:15.428Z,96754.13
2022-12-23T08:02:42.748Z,96828.19
2022-12-23T08:05:10.258Z,96770.94
2022-12-23T08:07:37.006Z,96808.97
2022-12-23T08:10:04.883Z,96727.56
2022-12-23T08:12:31.596Z,96814.66
2022-12-23T08:14:58.297Z,96781.75
2022-12-23T08:17:30.058Z,96822.31
2022-12-23T08:19:57.244Z,96757.88
2022-12-23T08:22:24.351Z,96815.97
2022-12-23T08:24:51.066Z,96823.50
2022-12-23T08:27:17.721Z,96769.59
2022-12-23T08:29:44.588Z,96792.72
2022-12-23T08:32:11.194Z,96815.88
2022-12-23T08:34:38.122Z,96819.06
2022-12-23T08:37:04.700Z,96739.72
2022-12-23T08:39:31.533Z,96813.91
2022-12-23T08:41:58.149Z,96823.50
2022-12-23T08:44:27.927Z,96808.44
2022-12-23T08:46:55.132Z,96743.06
2022-12-23T08:49:21.806Z,96768.69
2022-12-23T08:51:49.022Z,96791.63
2022-12-23T08:54:16.032Z,96816.19
2022-12-23T08:56:43.443Z,96809.00
2022-12-23T08:59:18.755Z,96803.13
2022-12-23T09:01:46.973Z,96769.72
2022-12-23T09:04:13.708Z,96777.94
2022-12-23T09:06:42.264Z,96788.50
2022-12-23T09:09:11.620Z,96784.00
2022-12-23T09:11:38.883Z,96719.50
2022-12-23T09:14:06.667Z,96762.59
2022-12-23T09:16:33.303Z,96776.69
2022-12-23T09:18:59.970Z,96743.91
2022-12-23T09:21:26.887Z,96771.03
2022-12-23T09:23:53.540Z,96767.50
2022-12-23T09:26:28.782Z,96750.00
2022-12-23T09:28:56.424Z,96759.94
2022-12-23T09:31:23.758Z,96694.78
2022-12-23T09:33:53.464Z,96760.78
2022-12-23T09:36:20.866Z,96748.69
2022-12-23T09:38:47.622Z,96760.13
2022-12-23T09:41:20.120Z,96758.28
2022-12-23T09:44:22.527Z,96750.88
2022-12-23T09:47:04.634Z,96732.16
2022-12-23T09:49:33.879Z,96663.44
2022-12-23T09:52:05.158Z,96745.47
2022-12-23T09:55:01.333Z,96748.03
2022-12-23T09:57:48.287Z,96671.03
2022-12-23T10:00:17.059Z,96353.09
2022-12-23T10:03:11.961Z,96740.47
2022-12-23T10:06:00.417Z,96744.81
2022-12-23T10:08:32.779Z,96741.22
2022-12-23T10:11:25.301Z,96736.69
2022-12-23T10:14:03.296Z,96725.75
2022-12-23T10:16:39.640Z,96702.84
2022-12-23T10:19:26.286Z,96700.63
2022-12-23T10:22:00.692Z,96680.69
2022-12-23T10:24:35.268Z,96703.97
2022-12-23T10:27:23.625Z,96704.38
2022-12-23T10:29:50.651Z,96702.56
2022-12-23T10:32:17.226Z,96704.25
2022-12-23T10:35:15.733Z,96702.69
2022-12-23T10:37:55.420Z,96648.66
2022-12-23T10:40:41.469Z,96691.25
2022-12-23T10:43:39.493Z,96662.31
2022-12-23T10:46:57.292Z,96672.72
2022-12-23T10:49:29.618Z,96679.53
2022-12-23T10:52:03.565Z,96697.44
2022-12-23T10:54:34.897Z,96683.56
2022-12-23T10:57:04.183Z,96682.00
2022-12-23T10:59:35.765Z,96702.19
2022-12-23T11:02:12.517Z,96681.34
2022-12-23T11:04:44.768Z,96651.47
2022-12-23T11:07:43.610Z,96679.81
2022-12-23T11:10:13.302Z,96672.78
2022-12-23T11:12:43.175Z,96675.22
2022-12-23T11:15:38.489Z,96671.28
2022-12-23T11:18:14.255Z,96664.81
2022-12-23T11:20:43.619Z,96685.00
2022-12-23T11:23:35.974Z,96616.31
2022-12-23T11:26:07.115Z,96656.84
2022-12-23T11:28:37.454Z,96605.16
2022-12-23T11:31:11.840Z,96664.00
2022-12-23T11:33:45.598Z,96630.72
2022-12-23T11:36:12.068Z,96660.59
2022-12-23T11:38:52.530Z,96658.56
2022-12-23T11:41:33.748Z,96651.06
2022-12-23T11:44:18.650Z,96648.34
2022-12-23T11:46:45.359Z,96642.78
2022-12-23T11:49:26.873Z,96642.38
2022-12-23T11:52:01.858Z,96620.53
2022-12-23T11:54:28.944Z,96626.88
2022-12-23T11:56:56.162Z,96537.06
2022-12-23T11:59:33.817Z,96620.47
2022-12-23T12:02:03.760Z,96614.06
2022-12-23T12:04:34.806Z,96625.16
2022-12-23T12:07:03.516Z,96604.53
2022-12-23T12:09:32.087Z,96575.91
2022-12-23T12:12:15.127Z,96615.72
2022-12-23T12:14:48.740Z,96629.59
2022-12-23T12:17:21.477Z,96630.41
2022-12-23T12:19:58.521Z,96634.72
2022-12-23T12:22:34.837Z,96635.47
2022-12-23T12:25:12.407Z,96619.59
2022-12-23T12:27:40.416Z,96621.13
2022-12-23T12:30:16.032Z,96561.47
2022-12-23T12:33:05.642Z,96624.38
2022-12-23T12:35:44.470Z,96630.75
2022-12-23T12:38:21.755Z,96562.81
2022-12-23T12:40:52.256Z,96614.88
2022-12-23T12:43:32.527Z,96635.56
2022-12-23T12:46:11.053Z,96639.56
2022-12-23T12:48:39.007Z,96640.38
2022-12-23T12:51:16.070Z,96649.13
2022-12-23T12:53:52.635Z,96640.41
2022-12-23T12:56:28.527Z,96633.22
2022-12-23T12:58:55.151Z,96649.13
2022-12-23T13:01:33.141Z,96645.94
2022-12-23T13:04:26.511Z,96638.81
2022-12-23T13:07:05.118Z,96645.97
2022-12-23T13:10:00.808Z,96644.38
2022-12-23T13:12:39.786Z,96651.50
2022-12-23T13:15:19.073Z,96654.69
2022-12-23T13:18:01.807Z,96656.28
2022-12-23T13:20:36.685Z,96665.41
2022-12-23T13:23:43.557Z,96664.22
2022-12-23T13:26:29.419Z,96667.41
2022-12-23T13:29:14.638Z,96669.00
2022-12-23T13:31:43.898Z,96671.38
2022-12-23T13:34:33.834Z,96672.16
2022-12-23T13:37:00.488Z,96660.16
2022-12-23T13:39:39.508Z,96673.59
2022-12-23T13:42:12.390Z,96666.38
2022-12-23T13:44:39.427Z,96665.78
2022-12-23T13:47:44.029Z,96610.06
2022-12-23T13:50:17.590Z,96669.03
2022-12-23T13:53:16.163Z,96676.53
2022-12-23T13:55:57.850Z,96675.19
2022-12-23T13:58:27.118Z,96671.59
2022-12-23T14:01:21.042Z,96669.19
2022-12-23T14:03:49.421Z,96671.56
2022-12-23T14:06:44.011Z,96686.97
2022-12-23T14:09:16.114Z,96688.47
2022-12-23T14:11:44.953Z,96689.84
2022-12-23T14:14:21.519Z,96371.16
2022-12-23T14:17:02.664Z,96685.31
2022-12-23T14:19:38.282Z,96683.75
2022-12-23T14:22:24.960Z,96665.16
2022-12-23T14:25:20.880Z,96686.09
2022-12-23T14:28:06.097Z,96698.34
2022-12-23T14:30:42.632Z,96692.03
2022-12-23T14:33:27.783Z,96698.03
2022-12-23T14:36:13.033Z,96698.72
2022-12-23T14:38:40.268Z,96704.03
2022-12-23T14:41:23.080Z,96703.94
2022-12-23T14:43:55.872Z,96659.81
2022-12-23T14:46:31.128Z,96702.88
2022-12-23T14:49:16.259Z,96709.16
2022-12-23T14:51:45.461Z,96682.44
2022-12-23T14:54:14.909Z,96707.38
2022-12-23T14:56:42.055Z,96702.47
2022-12-23T14:59:22.241Z,96708.63
2022-12-23T15:01:55.429Z,96699.94
2022-12-23T15:04:28.624Z,96712.44
2022-12-23T15:07:13.366Z,96714.00
2022-12-23T15:09:45.323Z,96711.88
2022-12-23T15:12:38.819Z,96710.03
2022-12-23T15:15:07.263Z,96705.38
2022-12-23T15:17:36.771Z,96700.31
2022-12-23T15:20:18.552Z,96715.44
2022-12-23T15:22:46.225Z,96716.03
2022-12-23T15:25:24.053Z,96717.56
2022-12-23T15:28:00.862Z,96701.72
2022-12-23T15:30:31.189Z,96672.91
2022-12-23T15:33:01.732Z,96722.00
2022-12-23T15:35:34.617Z,96717.66
2022-12-23T15:38:02.868Z,96724.31
2022-12-23T15:40:37.640Z,96730.34
2022-12-23T15:43:20.166Z,96738.19
2022-12-23T15:45:46.756Z,96371.75
2022-12-23T15:48:24.141Z,96731.94
2022-12-23T15:50:54.616Z,96747.44
2022-12-23T15:53:21.276Z,96670.56
2022-12-23T15:55:49.215Z,96732.66
2022-12-23T15:58:21.225Z,96748.34
2022-12-23T16:00:57.707Z,96756.72
2022-12-23T16:03:40.307Z,96733.53
2022-12-23T16:06:29.041Z,96746.63
2022-12-23T16:09:06.735Z,96743.91
2022-12-23T16:11:59.518Z,96717.91
2022-12-23T16:14:40.744Z,96755.03
2022-12-23T16:17:07.266Z,96749.25
2022-12-23T16:20:21.372Z,96751.38
2022-12-23T16:22:51.172Z,96747.56
2022-12-23T16:25:23.049Z,96736.38
2022-12-23T16:27:54.394Z,96737.69
2022-12-23T16:30:25.822Z,96687.41
2022-12-23T16:32:56.057Z,96748.09
2022-12-23T16:35:34.717Z,96771.34
2022-12-23T16:38:25.610Z,96764.50
2022-12-23T16:40:57.170Z,96769.78
2022-12-23T16:43:25.033Z,96778.75
2022-12-23T16:45:55.499Z,96727.84
2022-12-23T16:48:34.539Z,96758.34
2022-12-23T16:51:04.062Z,96787.25
2022-12-23T16:53:30.667Z,96714.44
2022-12-23T16:56:00.923Z,96786.38
2022-12-23T16:58:28.363Z,96783.88
2022-12-23T17:00:55.945Z,96761.47
2022-12-23T17:03:22.587Z,96781.47
2022-12-23T17:05:49.436Z,96726.84
2022-12-23T17:08:16.077Z,96726.84
2022-12-23T17:10:44.768Z,96794.06
2022-12-23T17:13:17.704Z,96783.47
2022-12-23T17:15:45.081Z,96799.63
2022-12-23T17:18:14.598Z,96794.34
2022-12-23T17:20:43.362Z,96795.75
2022-12-23T17:23:31.132Z,96793.03
2022-12-23T17:25:58.060Z,96794.41
2022-12-23T17:28:30.274Z,96798.44
2022-12-23T17:30:57.022Z,96802.00
2022-12-23T17:33:26.738Z,96810.25
2022-12-23T17:35:53.578Z,96743.31
2022-12-23T17:38:20.132Z,96799.47
2022-12-23T17:40:47.239Z,96679.13
2022-12-23T17:43:16.859Z,96780.47
2022-12-23T17:45:44.482Z,96721.22
2022-12-23T17:48:17.951Z,96792.38
2022-12-23T17:50:47.820Z,96799.16
2022-12-23T17:53:16.312Z,96797.44
2022-12-23T17:55:43.295Z,96793.22
2022-12-23T17:58:10.260Z,96677.41
2022-12-23T18:00:38.278Z,96766.63
2022-12-23T18:03:06.410Z,96794.34
2022-12-23T18:05:35.744Z,96806.34
2022-12-23T18:08:03.383Z,96801.75
2022-12-23T18:10:37.262Z,96805.63
2022-12-23T18:13:07.965Z,96808.38
2022-12-23T18:15:40.673Z,96811.22
2022-12-23T18:18:31.315Z,96808.56
2022-12-23T18:21:05.602Z,96811.97
2022-12-23T18:23:33.650Z,96821.09
2022-12-23T18:26:00.840Z,96821.78
2022-12-23T18:28:27.619Z,96807.59
2022-12-23T18:30:57.715Z,96705.59
2022-12-23T18:33:28.654Z,96827.31
2022-12-23T18:35:55.741Z,96783.28
2022-12-23T18:38:22.871Z,96821.13
2022-12-23T18:40:52.803Z,96815.50
2022-12-23T18:43:22.632Z,96798.94
2022-12-23T18:45:53.199Z,96824.13
2022-12-23T18:48:20.297Z,96808.53
2022-12-23T18:50:47.041Z,96832.88
2022-12-23T18:53:23.889Z,96861.50
2022-12-23T18:55:52.501Z,96823.13
2022-12-23T18:58:19.893Z,96830.22
2022-12-23T19:00:47.872Z,96825.00
2022-12-23T19:03:31.361Z,96819.50
2022-12-23T19:05:58.878Z,96821.25
2022-12-23T19:08:27.675Z,96817.78
2022-12-23T19:10:55.571Z,96801.47
2022-12-23T19:13:22.375Z,96816.56
2022-12-23T19:15:49.169Z,96814.97
2022-12-23T19:18:21.358Z,96828.84
2022-12-23T19:20:48.986Z,96824.97
2022-12-23T19:23:15.866Z,96824.31
2022-12-23T19:25:49.212Z,96822.44
2022-12-23T19:28:22.051Z,96829.09
2022-12-23T19:30:49.270Z,96841.84
2022-12-23T19:33:16.316Z,96831.59
2022-12-23T19:35:44.165Z,96817.31
2022-12-23T19:38:12.349Z,96798.34
2022-12-23T19:40:39.437Z,96820.31
2022-12-23T19:43:06.088Z,96837.34
2022-12-23T19:45:32.666Z,96833.50
2022-12-23T19:47:59.391Z,96808.63
2022-12-23T19:50:27.256Z,96700.47
2022-12-23T19:52:56.339Z,96843.38
2022-12-23T19:55:23.255Z,96828.25
2022-12-23T19:57:49.870Z,96809.63
2022-12-23T20:00:16.680Z,96743.47
2022-12-23T20:02:43.460Z,96747.28
2022-12-23T20:05:10.279Z,96372.53
2022-12-23T20:07:37.388Z,96800.00
2022-12-23T20:10:05.206Z,96799.34
2022-12-23T20:12:31.926Z,96719.88
2022-12-23T20:14:58.537Z,96807.38
2022-12-23T20:17:25.127Z,96752.78
2022-12-23T20:19:51.778Z,96811.69
2022-12-23T20:22:18.394Z,96815.09
2022-12-23T20:24:45.189Z,96774.97
2022-12-23T20:27:14.801Z,96820.28
2022-12-23T20:29:42.439Z,96823.22
2022-12-23T20:32:09.104Z,96824.69
2022-12-23T20:34:39.581Z,96723.69
2022-12-23T20:37:07.113Z,96827.44
2022-12-23T20:39:34.084Z,96744.72
2022-12-23T20:42:00.637Z,96831.78
2022-12-23T20:44:36.059Z,96811.38
2022-12-23T20:47:03.963Z,96823.41
2022-12-23T20:49:31.281Z,96825.50
2022-12-23T20:51:57.913Z,96772.19
2022-12-23T20:54:31.636Z,96778.25
2022-12-23T20:56:59.571Z,96753.41
2022-12-23T20:59:26.142Z,96821.34
2022-12-23T21:01:52.897Z,96837.72
2022-12-23T21:04:20.454Z,96804.31
2022-12-23T21:06:47.150Z,96841.56
2022-12-23T21:09:15.060Z,96835.94
2022-12-23T21:11:44.047Z,96834.50
2022-12-23T21:14:11.287Z,96839.34
2022-12-23T21:16:38.661Z,96802.88
2022-12-23T21:19:14.172Z,96838.06
2022-12-23T21:21:40.897Z,96838.38
2022-12-23T21:24:07.537Z,96828.06
2022-12-23T21:26:35.579Z,96764.66
2022-12-23T21:29:04.561Z,96814.88
2022-12-23T21:31:33.028Z,96821.47
2022-12-23T21:33:59.631Z,96806.56
2022-12-23T21:36:30.986Z,96828.41
2022-12-23T21:38:58.298Z,96830.50
2022-12-23T21:41:28.371Z,96803.53
2022-12-23T21:43:56.926Z,96833.25
2022-12-23T21:46:24.345Z,96733.34
2022-12-23T21:48:51.534Z,96776.06
2022-12-23T21:51:21.608Z,96824.72
2022-12-23T21:53:50.625Z,96813.13
2022-12-23T21:56:19.834Z,96819.72
2022-12-23T21:58:47.147Z,96755.81
2022-12-23T22:01:16.231Z,96817.31
2022-12-23T22:03:43.484Z,96783.91
2022-12-23T22:06:16.007Z,96809.78
2022-12-23T22:08:43.106Z,96766.09
2022-12-23T22:11:12.499Z,96808.34
2022-12-23T22:13:39.935Z,96808.84
2022-12-23T22:16:11.987Z,96761.59
2022-12-23T22:18:39.558Z,96744.25
2022-12-23T22:21:07.833Z,96809.47
2022-12-23T22:23:34.865Z,96758.22
2022-12-23T22:26:01.620Z,96816.69
2022-12-23T22:28:32.158Z,96823.47
2022-12-23T22:31:08.387Z,96822.97
2022-12-23T22:33:35.226Z,96836.47
2022-12-23T22:36:01.889Z,96829.06
2022-12-23T22:38:28.517Z,96835.97
2022-12-23T22:40:55.139Z,96841.75
2022-12-23T22:43:21.770Z,96838.56
2022-12-23T22:45:55.906Z,96855.72
2022-12-23T22:48:23.236Z,96806.41
2022-12-23T22:50:49.833Z,96841.09
2022-12-23T22:53:16.683Z,96759.31
2022-12-23T22:55:43.292Z,96752.75
2022-12-23T22:58:09.943Z,96829.84
2022-12-23T23:00:36.605Z,96768.97
2022-12-23T23:03:03.607Z,96829.69
2022-12-23T23:05:30.299Z,96807.50
2022-12-23T23:07:56.948Z,96827.31
2022-12-23T23:10:23.507Z,96825.84
2022-12-23T23:12:50.052Z,96833.22
2022-12-23T23:15:16.894Z,96680.16
2022-12-23T23:17:43.429Z,96830.34
2022-12-23T23:20:10.204Z,96821.34
2022-12-23T23:22:36.835Z,96829.34
2022-12-23T23:25:03.793Z,96819.06
2022-12-23T23:27:30.347Z,96819.56
2022-12-23T23:29:57.003Z,96773.28
2022-12-23T23:32:23.628Z,96763.81
2022-12-23T23:34:50.234Z,96793.41
2022-12-23T23:37:16.771Z,96831.63
2022-12-23T23:39:43.415Z,96805.94
2022-12-23T23:42:10.610Z,96804.97
2022-12-23T23:44:37.211Z,96739.09
2022-12-23T23:47:03.871Z,96742.94
2022-12-23T23:49:30.432Z,96808.97
2022-12-23T23:51:56.989Z,96810.56
2022-12-23T23:54:23.619Z,96763.63
2022-12-23T23:56:50.196Z,96817.28
2022-12-23T23:59:16.750Z,96788.50
